EDDE 200020Z AUTO 23006KT CAVOK 14/13 Q1022 EDDE 192350Z AUTO 22007KT CAVOK 14/14 Q1021 EDDE 192320Z AUTO 23007KT CAVOK 15/14 Q1021 EDDE 192250Z AUTO 24007KT CAVOK 15/15 Q1021 EDDE 192220Z AUTO 21009KT CAVOK 15/15 Q1021 EDDE 192150Z AUTO 20008KT CAVOK 16/15 Q1020 EDDE 192120Z AUTO 20009KT CAVOK 16/15 Q1020 EDDE 192050Z AUTO 18008KT CAVOK 16/15 Q1020 EDDE 192020Z AUTO 19011KT CAVOK 16/15 Q1021 EDDE 191950Z AUTO 18010KT 9999 -RA NSC 16/15 Q1021 NOSIG EDDE 191920Z AUTO 23007KT 190V260 9999 -RA NSC 16/15 Q1022 RETSRA TEMPO RA EDDE 191850Z AUTO 29018KT 9999 TSRA FEW024 SCT///CB 17/14 Q1022 TEMPO 4000 SHRA EDDE 191820Z AUTO 24007G20KT 9999 -SHRA FEW///TCU 23/14 Q1020 TEMPO 27020G40KT TSRAGR EDDE 191750Z AUTO 24006KT CAVOK 24/14 Q1019 TEMPO FM1820 27020G40KT TSRAGR EDDE 191720Z AUTO 23008KT 9999 -SHRA FEW///TCU 25/13 Q1019 TEMPO FM1815 27020G40KT TSRAGR EDDE 191650Z AUTO 23005KT 200V280 CAVOK 25/13 Q1019 TEMPO FM1830 27020G40KT TSRAGR EDDE 191620Z AUTO 22005KT CAVOK 26/14 Q1018 NOSIG EDDE 191550Z AUTO 21008KT CAVOK 26/12 Q1018 NOSIG EDDE 191520Z AUTO 22007KT 180V250 CAVOK 27/12 Q1018 NOSIG EDDE 191450Z AUTO 23008KT 210V270 CAVOK 27/13 Q1018 NOSIG EDDE 191420Z AUTO 25008KT CAVOK 27/14 Q1019 NOSIG EDDE 191350Z AUTO 18004KT 140V260 CAVOK 27/14 Q1019 NOSIG EDDE 191320Z AUTO 19004KT 140V240 CAVOK 28/10 Q1019 NOSIG EDDE 191250Z AUTO 17006KT 140V230 CAVOK 27/11 Q1019 NOSIG EDDE 191220Z AUTO 17005KT 110V250 CAVOK 27/11 Q1020 NOSIG EDDE 191150Z AUTO VRB03KT CAVOK 26/12 Q1020 NOSIG EDDE 191120Z AUTO 16007KT 130V210 CAVOK 27/12 Q1020 NOSIG EDDE 191050Z AUTO 16006KT 100V190 CAVOK 25/10 Q1021 NOSIG EDDE 191020Z AUTO 15006KT 110V190 CAVOK 25/10 Q1021 NOSIG EDDE 190950Z AUTO 21008KT 180V250 CAVOK 25/09 Q1021 NOSIG EDDE 190920Z AUTO 20009KT 150V230 CAVOK 24/10 Q1021 NOSIG EDDE 190850Z AUTO 17005KT 100V220 CAVOK 24/12 Q1022 NOSIG EDDE 190820Z AUTO 17006KT 120V210 CAVOK 23/12 Q1022 NOSIG EDDE 190750Z AUTO 16006KT 130V210 CAVOK 22/13 Q1022 NOSIG EDDE 190720Z AUTO 16008KT CAVOK 21/12 Q1022 NOSIG EDDE 190650Z AUTO 18008KT CAVOK 20/11 Q1022 NOSIG EDDE 190620Z AUTO 17008KT CAVOK 18/11 Q1022 NOSIG EDDE 190550Z AUTO 17006KT CAVOK 18/11 Q1022 NOSIG EDDE 190520Z AUTO 18008KT CAVOK 17/10 Q1022 NOSIG EDDE 190450Z AUTO 18008KT CAVOK 17/10 Q1022 EDDE 190420Z AUTO 18008KT CAVOK 17/10 Q1022 NOSIG EDDE 190350Z AUTO 20009KT CAVOK 16/10 Q1022 NOSIG EDDE 190320Z AUTO 20009KT CAVOK 16/10 Q1022 EDDE 190250Z AUTO 20009KT CAVOK 16/10 Q1022 EDDE 190220Z AUTO 19009KT CAVOK 16/10 Q1022 EDDE 190150Z AUTO 20008KT CAVOK 16/10 Q1022 EDDE 190120Z AUTO 19010KT CAVOK 17/10 Q1022 EDDE 190050Z AUTO 18010KT CAVOK 17/10 Q1022 EDDE 190020Z AUTO 19009KT CAVOK 17/11 Q1022 EDDE 182350Z AUTO 19009KT CAVOK 17/11 Q1022 EDDE 182320Z AUTO 19008KT CAVOK 18/12 Q1022 EDDE 182250Z AUTO 19008KT CAVOK 18/12 Q1023 EDDE 182220Z AUTO 20007KT CAVOK 18/12 Q1023 EDDE 182150Z AUTO 20007KT CAVOK 18/12 Q1023 EDDE 182120Z AUTO 20007KT CAVOK 19/12 Q1023 EDDE 182050Z AUTO 21006KT CAVOK 19/12 Q1023 EDDE 182020Z AUTO 19003KT CAVOK 21/12 Q1023 EDDE 181950Z AUTO 19004KT CAVOK 21/12 Q1023 NOSIG EDDE 181920Z AUTO 18004KT CAVOK 21/13 Q1023 NOSIG EDDE 181850Z AUTO 17003KT CAVOK 22/13 Q1023 NOSIG EDDE 181820Z AUTO 16003KT CAVOK 23/13 Q1023 NOSIG EDDE 181750Z AUTO 15003KT CAVOK 24/14 Q1023 NOSIG EDDE 181720Z AUTO 16003KT CAVOK 24/13 Q1023 NOSIG EDDE 181650Z AUTO 15004KT 080V200 CAVOK 25/14 Q1023 NOSIG EDDE 181620Z AUTO 13003KT 060V180 CAVOK 24/14 Q1023 NOSIG EDDE 181550Z AUTO 08003KT 030V110 9999 ///////// 25/14 Q1023 NOSIG EDDE 181520Z AUTO 08004KT 020V140 CAVOK 25/14 Q1023 NOSIG EDDE 181450Z AUTO VRB04KT CAVOK 25/13 Q1023 NOSIG EDDE 181420Z AUTO VRB03KT CAVOK 25/13 Q1023 NOSIG EDDE 181350Z AUTO 05003KT 330V130 CAVOK 24/14 Q1023 NOSIG EDDE 181320Z AUTO 05005KT 9999 FEW047 26/14 Q1024 NOSIG EDDE 181250Z AUTO 15003KT 060V230 9999 FEW045 25/14 Q1024 NOSIG

METAR Messwerte "ERFURT/BINDERSLE" EDDE

Zurück zur Übersicht

Ortsname
Ländercode / m ü. NN
Zeit Temperatur Taupunkt Rel.
Luftfeuchte
Luftdruck:
Altimeter
NN
Station
Wind in Beaufort
(Knoten)
Sichtweite
(Meter)
Wolken
(Meter über Grund)
Wettererscheinung
ERFURT/BINDERSLE
DE 314
Fr 20.05. 02:20141394 %1022
1022
985
SW 2 (6)>= 10000Nicht signifikant 
ERFURT/BINDERSLE
DE 314
Fr 20.05. 01:501414100 %1021
1021
984
SW 3 (7)>= 10000Nicht signifikant 
ERFURT/BINDERSLE
DE 314
Fr 20.05. 01:20151494 %1021
1021
984
SW 3 (7)>= 10000Nicht signifikant 
ERFURT/BINDERSLE
DE 314
Fr 20.05. 00:501515100 %1021
1021
984
WSW 3 (7)>= 10000Nicht signifikant 
ERFURT/BINDERSLE
DE 314
Fr 20.05. 00:201515100 %1021
1021
984
SSW 3 (9)>= 10000Nicht signifikant 
ERFURT/BINDERSLE
DE 314
Do 19.05. 23:50161594 %1020
1020
983
SSW 3 (8)>= 10000Nicht signifikant 
ERFURT/BINDERSLE
DE 314
Do 19.05. 23:20161594 %1020
1020
983
SSW 3 (9)>= 10000Nicht signifikant 
ERFURT/BINDERSLE
DE 314
Do 19.05. 22:50161594 %1020
1020
983
S 3 (8)>= 10000Nicht signifikant 
ERFURT/BINDERSLE
DE 314
Do 19.05. 22:20161594 %1021
1021
984
S 4 (11)>= 10000Nicht signifikant 
ERFURT/BINDERSLE
DE 314
Do 19.05. 21:50161594 %1021
1021
984
S 3 (10)>= 10000Nicht signifikantRegen (schwach)
ERFURT/BINDERSLE
DE 314
Do 19.05. 21:20161594 %1022
1022
985
SW 3 (7)
S - W
>= 10000Nicht signifikantRegen (schwach)
Bald zeitweise: Regen
ERFURT/BINDERSLE
DE 314
Do 19.05. 20:50171482 %1022
1022
985
WNW 5 (18)>= 10000
Bald zeitweise: 4000
Leicht bewölkt (730)Gewitter mit Regen
Bald zeitweise: Regen-Schauer
ERFURT/BINDERSLE
DE 314
Do 19.05. 20:20231457 %1020
1019
983
WSW 3 (7) - 5 (20)
Bald zeitweise:
W 5 (20) - 8 (40)
>= 10000 Regen-Schauer (schwach)
Bald zeitweise: Gewitter mit Regen/Hagel
ERFURT/BINDERSLE
DE 314
Do 19.05. 19:50241454 %1019
1018
982
WSW 2 (6)
Ab 20:20 zeitweise:
W 5 (20) - 8 (40)
>= 10000Nicht signifikant Ab 20:20 zeitweise: Gewitter mit Regen/Hagel
ERFURT/BINDERSLE
DE 314
Do 19.05. 19:20251347 %1019
1018
982
SW 3 (8)
Ab 20:15 zeitweise:
W 5 (20) - 8 (40)
>= 10000 Regen-Schauer (schwach)
Ab 20:15 zeitweise: Gewitter mit Regen/Hagel
ERFURT/BINDERSLE
DE 314
Do 19.05. 18:50251347 %1019
1018
982
SW 2 (5)
SSW - W
Ab 20:30 zeitweise:
W 5 (20) - 8 (40)
>= 10000Nicht signifikant Ab 20:30 zeitweise: Gewitter mit Regen/Hagel
ERFURT/BINDERSLE
DE 314
Do 19.05. 18:20261448 %1018
1017
981
SW 2 (5)>= 10000Nicht signifikant 
ERFURT/BINDERSLE
DE 314
Do 19.05. 17:50261242 %1018
1017
981
SSW 3 (8)>= 10000Nicht signifikant 
ERFURT/BINDERSLE
DE 314
Do 19.05. 17:20271239 %1018
1017
981
SW 3 (7)
S - WSW
>= 10000Nicht signifikant 
ERFURT/BINDERSLE
DE 314
Do 19.05. 16:50271342 %1018
1017
981
SW 3 (8)
SSW - W
>= 10000Nicht signifikant 
ERFURT/BINDERSLE
DE 314
Do 19.05. 16:20271445 %1019
1018
982
WSW 3 (8)>= 10000Nicht signifikant 
ERFURT/BINDERSLE
DE 314
Do 19.05. 15:50271445 %1019
1018
982
S 2 (4)
SO - W
>= 10000Nicht signifikant 
ERFURT/BINDERSLE
DE 314
Do 19.05. 15:20281032 %1019
1017
982
S 2 (4)
SO - WSW
>= 10000Nicht signifikant 
ERFURT/BINDERSLE
DE 314
Do 19.05. 14:50271137 %1019
1018
982
S 2 (6)
SO - SW
>= 10000Nicht signifikant 
ERFURT/BINDERSLE
DE 314
Do 19.05. 14:20271137 %1020
1019
983
S 2 (5)
OSO - WSW
>= 10000Nicht signifikant 
ERFURT/BINDERSLE
DE 314
Do 19.05. 13:50261242 %1020
1019
983
Uml 2 (3)>= 10000Nicht signifikant 
ERFURT/BINDERSLE
DE 314
Do 19.05. 13:20271239 %1020
1019
983
SSO 3 (7)
SO - SSW
>= 10000Nicht signifikant 
ERFURT/BINDERSLE
DE 314
Do 19.05. 12:50251039 %1021
1020
984
SSO 2 (6)
O - S
>= 10000Nicht signifikant 
ERFURT/BINDERSLE
DE 314
Do 19.05. 12:20251039 %1021
1020
984
SSO 2 (6)
OSO - S
>= 10000Nicht signifikant 
ERFURT/BINDERSLE
DE 314
Do 19.05. 11:5025936 %1021
1020
984
SSW 3 (8)
S - WSW
>= 10000Nicht signifikant 
ERFURT/BINDERSLE
DE 314
Do 19.05. 11:20241041 %1021
1020
984
SSW 3 (9)
SSO - SW
>= 10000Nicht signifikant 
ERFURT/BINDERSLE
DE 314
Do 19.05. 10:50241247 %1022
1021
985
S 2 (5)
O - SW
>= 10000Nicht signifikant 
ERFURT/BINDERSLE
DE 314
Do 19.05. 10:20231250 %1022
1021
985
S 2 (6)
OSO - SSW
>= 10000Nicht signifikant 
ERFURT/BINDERSLE
DE 314
Do 19.05. 09:50221357 %1022
1021
985
SSO 2 (6)
SO - SSW
>= 10000Nicht signifikant 
ERFURT/BINDERSLE
DE 314
Do 19.05. 09:20211256 %1022
1021
985
SSO 3 (8)>= 10000Nicht signifikant 
ERFURT/BINDERSLE
DE 314
Do 19.05. 08:50201156 %1022
1021
985
S 3 (8)>= 10000Nicht signifikant 
ERFURT/BINDERSLE
DE 314
Do 19.05. 08:20181164 %1022
1022
985
S 3 (8)>= 10000Nicht signifikant 
ERFURT/BINDERSLE
DE 314
Do 19.05. 07:50181164 %1022
1022
985
S 2 (6)>= 10000Nicht signifikant 
ERFURT/BINDERSLE
DE 314
Do 19.05. 07:20171063 %1022
1022
985
S 3 (8)>= 10000Nicht signifikant 
ERFURT/BINDERSLE
DE 314
Do 19.05. 06:50171063 %1022
1022
985
S 3 (8)>= 10000Nicht signifikant 
ERFURT/BINDERSLE
DE 314
Do 19.05. 06:20171063 %1022
1022
985
S 3 (8)>= 10000Nicht signifikant 
ERFURT/BINDERSLE
DE 314
Do 19.05. 05:50161068 %1022
1022
985
SSW 3 (9)>= 10000Nicht signifikant 
ERFURT/BINDERSLE
DE 314
Do 19.05. 05:20161068 %1022
1022
985
SSW 3 (9)>= 10000Nicht signifikant 
ERFURT/BINDERSLE
DE 314
Do 19.05. 04:50161068 %1022
1022
985
SSW 3 (9)>= 10000Nicht signifikant 
ERFURT/BINDERSLE
DE 314
Do 19.05. 04:20161068 %1022
1022
985
S 3 (9)>= 10000Nicht signifikant 
ERFURT/BINDERSLE
DE 314
Do 19.05. 03:50161068 %1022
1022
985
SSW 3 (8)>= 10000Nicht signifikant 
ERFURT/BINDERSLE
DE 314
Do 19.05. 03:20171063 %1022
1022
985
S 3 (10)>= 10000Nicht signifikant 
ERFURT/BINDERSLE
DE 314
Do 19.05. 02:50171063 %1022
1022
985
S 3 (10)>= 10000Nicht signifikant 
ERFURT/BINDERSLE
DE 314
Do 19.05. 02:20171168 %1022
1022
985
S 3 (9)>= 10000Nicht signifikant 
ERFURT/BINDERSLE
DE 314
Do 19.05. 01:50171168 %1022
1022
985
S 3 (9)>= 10000Nicht signifikant 
ERFURT/BINDERSLE
DE 314
Do 19.05. 01:20181268 %1022
1022
985
S 3 (8)>= 10000Nicht signifikant 
ERFURT/BINDERSLE
DE 314
Do 19.05. 00:50181268 %1023
1023
986
S 3 (8)>= 10000Nicht signifikant 
ERFURT/BINDERSLE
DE 314
Do 19.05. 00:20181268 %1023
1023
986
SSW 3 (7)>= 10000Nicht signifikant 
ERFURT/BINDERSLE
DE 314
Mi 18.05. 23:50181268 %1023
1023
986
SSW 3 (7)>= 10000Nicht signifikant 
ERFURT/BINDERSLE
DE 314
Mi 18.05. 23:20191264 %1023
1023
986
SSW 3 (7)>= 10000Nicht signifikant 
ERFURT/BINDERSLE
DE 314
Mi 18.05. 22:50191264 %1023
1023
986
SSW 2 (6)>= 10000Nicht signifikant 
ERFURT/BINDERSLE
DE 314
Mi 18.05. 22:20211256 %1023
1022
986
S 2 (3)>= 10000Nicht signifikant 
ERFURT/BINDERSLE
DE 314
Mi 18.05. 21:50211256 %1023
1022
986
S 2 (4)>= 10000Nicht signifikant 
ERFURT/BINDERSLE
DE 314
Mi 18.05. 21:20211360 %1023
1022
986
S 2 (4)>= 10000Nicht signifikant 
ERFURT/BINDERSLE
DE 314
Mi 18.05. 20:50221357 %1023
1022
986
S 2 (3)>= 10000Nicht signifikant 
ERFURT/BINDERSLE
DE 314
Mi 18.05. 20:20231353 %1023
1022
986
SSO 2 (3)>= 10000Nicht signifikant 
ERFURT/BINDERSLE
DE 314
Mi 18.05. 19:50241454 %1023
1022
986
SSO 2 (3)>= 10000Nicht signifikant 
ERFURT/BINDERSLE
DE 314
Mi 18.05. 19:20241350 %1023
1022
986
SSO 2 (3)>= 10000Nicht signifikant 
ERFURT/BINDERSLE
DE 314
Mi 18.05. 18:50251450 %1023
1022
986
SSO 2 (4)
O - SSW
>= 10000Nicht signifikant 
ERFURT/BINDERSLE
DE 314
Mi 18.05. 18:20241454 %1023
1022
986
SO 2 (3)
ONO - S
>= 10000Nicht signifikant 
ERFURT/BINDERSLE
DE 314
Mi 18.05. 17:50251450 %1023
1022
986
O 2 (3)
NNO - OSO
>= 10000  
ERFURT/BINDERSLE
DE 314
Mi 18.05. 17:20251450 %1023
1022
986
O 2 (4)
NNO - SO
>= 10000Nicht signifikant 
ERFURT/BINDERSLE
DE 314
Mi 18.05. 16:50251347 %1023
1022
986
Uml 2 (4)>= 10000Nicht signifikant 
ERFURT/BINDERSLE
DE 314
Mi 18.05. 16:20251347 %1023
1022
986
Uml 2 (3)>= 10000Nicht signifikant 
ERFURT/BINDERSLE
DE 314
Mi 18.05. 15:50241454 %1023
1022
986
NO 2 (3)
NNW - SO
>= 10000Nicht signifikant 
ERFURT/BINDERSLE
DE 314
Mi 18.05. 15:20261448 %1024
1023
987
NO 2 (5)>= 10000Leicht bewölkt (1400) 
ERFURT/BINDERSLE
DE 314
Mi 18.05. 14:50251450 %1024
1023
987
SSO 2 (3)
ONO - SW
>= 10000Leicht bewölkt (1400) 

Altimeter: Einstellung am Altimeter (Höhenmesser), die Höhe 0 muss auf diesen Luftdruckwert zeigen, damit das Gerät die Stationshöhe richtig anzeigt.

NN: Luftdruck reduziert auf "Normal Null", auf Meereshöhe, dieser von der Temperatur abhängige Wert wird bisweilen unkorrekt einfach als "Luftdruck" bezeichnet. Eigentlich nur eine fiktive Größe, die es erlaubt, Stationen auf unterschiedlichen Höhen miteinander zu vergleichen.

Station: Realer Luftdruck an der Station.